Time;durP1;ratioP1;P1;durP2;ratioP2;P2;SDS_P1;SDS_P2;PMS_P1;PMS_P2;Temp;Humidity;BMP_temperature;BMP_pressure;BME280_temperature;BME280_humidity;BME280_pressure;Samples;Min_cycle;Max_cycle;Signal;HPM_P1;HPM_P2
2022/03/23 00:04:45;;;;;;;162.37;70.13;;;;;;;-1.22;57.61;100762.52;4610898;75;21481;-83
2022/03/23 00:17:51;;;;;;;174.60;77.47;;;;;;;-0.68;58.00;100764.84;4623498;75;21933;-83
2022/03/23 00:23:52;;;;;;;190.80;83.17;;;;;;;-0.85;57.73;100753.42;4618635;75;20993;-83
2022/03/23 00:29:53;;;;;;;189.43;82.60;;;;;;;-0.97;57.08;100748.73;4609245;77;21051;-85
2022/03/23 00:35:55;;;;;;;158.90;72.70;;;;;;;-1.19;57.05;100743.20;4609951;75;21062;-83
2022/03/23 00:41:58;;;;;;;163.03;74.93;;;;;;;-1.28;58.61;100734.77;4612670;75;21026;-83
2022/03/23 00:48:04;;;;;;;180.90;77.03;;;;;;;-1.46;56.98;100732.99;4602735;75;21088;-83
2022/03/23 00:54:06;;;;;;;196.57;81.70;;;;;;;-1.71;58.58;100725.51;4623783;75;21059;-83
2022/03/23 01:00:20;;;;;;;214.33;91.90;;;;;;;-1.73;58.60;100726.28;4630803;75;21105;-82
2022/03/23 01:06:21;;;;;;;218.42;92.88;;;;;;;-1.78;58.21;100717.65;4627263;75;21042;-82
2022/03/23 01:12:24;;;;;;;180.23;79.20;;;;;;;-1.85;59.15;100717.02;4609092;75;21010;-82
2022/03/23 01:18:26;;;;;;;166.60;74.40;;;;;;;-1.92;60.03;100721.79;4626100;75;21003;-82
2022/03/23 01:24:27;;;;;;;191.43;86.40;;;;;;;-1.70;60.86;100715.86;4632994;75;21008;-82
2022/03/23 01:30:41;;;;;;;200.30;85.07;;;;;;;-1.57;59.90;100704.69;4619645;75;21007;-81
2022/03/23 01:36:43;;;;;;;165.73;72.60;;;;;;;-1.86;59.19;100703.33;4624644;75;20966;-82
2022/03/23 01:42:44;;;;;;;170.73;77.77;;;;;;;-1.96;61.20;100709.92;4630239;75;21543;-82
2022/03/23 01:48:48;;;;;;;180.90;83.30;;;;;;;-1.75;61.50;100703.72;4633759;75;21027;-81
2022/03/23 01:54:50;;;;;;;159.87;73.03;;;;;;;-1.86;60.91;100699.30;4624185;75;21020;-81
2022/03/23 02:00:53;;;;;;;176.13;77.63;;;;;;;-1.88;61.60;100699.29;4626443;75;21008;-81
2022/03/23 02:06:56;;;;;;;185.37;82.37;;;;;;;-2.13;59.77;100699.80;4619593;75;21063;-80
2022/03/23 02:13:00;;;;;;;169.10;76.23;;;;;;;-2.44;60.63;100684.92;4633820;75;21015;-80
2022/03/23 02:19:02;;;;;;;161.70;73.50;;;;;;;-2.52;61.51;100679.47;4626815;75;20998;-80
2022/03/23 02:25:07;;;;;;;157.53;69.93;;;;;;;-2.59;60.89;100675.36;4618271;75;21031;-80
2022/03/23 02:31:09;;;;;;;136.27;61.03;;;;;;;-2.74;62.09;100669.25;4618566;75;21052;-79
2022/03/23 02:37:11;;;;;;;128.60;59.07;;;;;;;-2.57;62.92;100676.75;4617729;75;20994;-80
2022/03/23 02:43:13;;;;;;;161.77;69.43;;;;;;;-2.24;63.08;100685.98;4633660;75;21051;-80
2022/03/23 02:49:20;;;;;;;159.43;73.93;;;;;;;-2.31;62.20;100675.99;4631829;75;21702;-80
2022/03/23 03:01:59;;;;;;;149.93;67.33;;;;;;;-2.84;62.79;100673.67;4615201;75;21544;-80
2022/03/23 03:14:20;;;;;;;140.37;62.63;;;;;;;-2.80;63.09;100664.10;4622451;75;21446;-79
2022/03/23 03:20:23;;;;;;;134.00;58.00;;;;;;;-2.95;63.60;100670.05;4622199;75;21053;-79
2022/03/23 03:26:24;;;;;;;140.20;64.77;;;;;;;-2.75;63.94;100668.98;4628700;75;21019;-81
2022/03/23 03:32:26;;;;;;;147.77;63.47;;;;;;;-2.58;63.79;100668.41;4535536;76;21534;-80
2022/03/23 03:38:28;;;;;;;153.80;66.13;;;;;;;-2.52;63.33;100664.72;4483323;78;21693;-80
2022/03/23 03:44:29;;;;;;;127.67;58.03;;;;;;;-2.95;63.40;100669.23;4552278;76;20991;-79
2022/03/23 03:50:31;;;;;;;154.73;66.10;;;;;;;-2.81;64.50;100671.32;4556555;76;21450;-79
2022/03/23 03:56:32;;;;;;;153.17;69.93;;;;;;;-2.98;63.79;100679.92;4564239;76;21555;-81
2022/03/23 04:02:33;;;;;;;150.43;67.43;;;;;;;-3.22;63.66;100664.56;4561323;77;21945;-80
2022/03/23 04:08:35;;;;;;;160.50;68.27;;;;;;;-3.50;63.30;100667.84;4547592;77;21551;-79
2022/03/23 04:14:36;;;;;;;157.27;69.60;;;;;;;-3.75;63.38;100658.05;4468035;78;21034;-79
2022/03/23 04:20:39;;;;;;;140.20;60.00;;;;;;;-3.90;63.68;100653.78;4500783;77;21062;-79
2022/03/23 04:26:40;;;;;;;138.87;63.87;;;;;;;-3.66;65.37;100643.21;4453482;78;21919;-80
2022/03/23 04:32:42;;;;;;;143.87;64.40;;;;;;;-3.58;65.25;100640.95;4512604;77;21045;-79
2022/03/23 04:38:43;;;;;;;165.40;71.27;;;;;;;-3.45;65.40;100654.55;4512705;77;20987;-80
2022/03/23 04:44:44;;;;;;;161.80;70.73;;;;;;;-3.26;65.42;100654.59;4507048;77;21550;-83
2022/03/23 04:50:48;;;;;;;164.47;72.17;;;;;;;-3.43;65.33;100663.16;4236326;80;24406;-80
2022/03/23 04:56:48;;;;;;;161.17;73.10;;;;;;;-3.53;65.05;100662.47;4347124;79;21034;-80
2022/03/23 05:02:50;;;;;;;159.47;68.57;;;;;;;-3.63;64.96;100642.72;4300957;81;21055;-80
2022/03/23 05:08:51;;;;;;;154.43;68.37;;;;;;;-3.80;65.20;100641.39;4291777;81;21032;-80
2022/03/23 05:14:54;;;;;;;147.67;68.10;;;;;;;-3.97;65.37;100637.05;4328858;81;21024;-80
2022/03/23 05:20:57;;;;;;;133.53;58.73;;;;;;;-3.95;66.07;100646.48;4403773;79;21596;-80
2022/03/23 05:27:00;;;;;;;154.20;69.50;;;;;;;-3.86;66.88;100641.53;4430590;79;21022;-80
2022/03/23 05:33:03;;;;;;;158.10;72.50;;;;;;;-3.55;66.94;100637.80;4411454;79;21033;-80
2022/03/23 05:39:05;;;;;;;151.47;66.90;;;;;;;-3.29;67.16;100639.02;4405256;79;21007;-80
2022/03/23 05:45:07;;;;;;;153.57;68.27;;;;;;;-2.96;67.60;100628.22;4412628;79;21542;-81
2022/03/23 05:51:09;;;;;;;137.50;63.27;;;;;;;-2.66;67.83;100625.94;4331134;80;21081;-80
2022/03/23 06:04:16;;;;;;;141.27;64.43;;;;;;;-2.02;68.16;100628.29;4335462;81;21096;-82
2022/03/23 06:10:43;;;;;;;148.97;65.73;;;;;;;-1.51;68.28;100627.67;4356442;80;21028;-81
2022/03/23 06:16:44;;;;;;;115.33;52.53;;;;;;;-0.75;68.17;100630.33;4406335;79;21062;-81
2022/03/23 06:22:46;;;;;;;143.10;65.73;;;;;;;0.05;69.09;100627.89;4416874;79;21077;-82
2022/03/23 06:35:26;;;;;;;;;;;;;;;1.36;67.20;100625.36;4309777;81;21082;-83
2022/03/23 06:41:27;;;;;;;113.88;53.65;;;;;;;3.04;65.55;100626.93;4401830;79;20142;-82
2022/03/23 06:47:30;;;;;;;128.82;57.73;;;;;;;3.04;65.55;100626.93;4327137;79;30625;-86
2022/03/23 06:53:32;;;;;;;116.90;54.15;;;;;;;3.64;64.18;100625.44;4069491;86;21067;-82
2022/03/23 06:59:35;;;;;;;114.05;51.92;;;;;;;3.97;63.64;100633.95;4202200;83;21073;-82
2022/03/23 07:05:36;;;;;;;100.92;49.38;;;;;;;4.59;63.14;100640.86;4207443;83;21043;-82
2022/03/23 07:11:38;;;;;;;98.33;49.58;;;;;;;4.88;62.34;100636.05;4211921;83;21093;-81
2022/03/23 07:17:39;;;;;;;86.85;45.83;;;;;;;5.12;62.33;100627.76;4203375;83;21026;-82
2022/03/23 07:23:40;;;;;;;93.05;47.60;;;;;;;5.59;61.40;100626.81;4212551;83;21034;-83
2022/03/23 07:29:42;;;;;;;81.57;42.33;;;;;;;5.95;61.00;100638.58;4200667;83;21609;-82
2022/03/23 07:35:44;;;;;;;81.60;43.95;;;;;;;6.56;60.49;100629.86;4191803;83;21025;-82
2022/03/23 07:41:50;;;;;;;75.62;34.83;;;;;;;7.13;59.82;100624.03;4200924;82;21069;-83
2022/03/23 07:47:51;;;;;;;77.90;38.08;;;;;;;7.78;59.50;100620.27;4205894;83;21098;-84
2022/03/23 07:53:54;;;;;;;72.05;37.00;;;;;;;8.39;58.22;100617.09;4209570;83;20980;-85
2022/03/23 07:59:58;;;;;;;64.82;35.45;;;;;;;8.94;57.45;100612.55;4112472;84;21102;-85
2022/03/23 08:06:03;;;;;;;70.65;38.05;;;;;;;9.70;57.28;100602.41;4116642;84;21018;-86
2022/03/23 08:12:42;;;;;;;69.72;33.83;;;;;;;10.44;56.21;100591.06;4120037;84;21042;-87
2022/03/23 08:18:43;;;;;;;57.45;32.15;;;;;;;11.28;55.11;100593.23;4118429;84;21063;-88
2022/03/23 08:24:44;;;;;;;59.18;33.02;;;;;;;12.22;53.62;100588.06;4106379;84;21520;-87
2022/03/23 08:30:45;;;;;;;60.67;31.95;;;;;;;12.75;52.85;100586.04;4110979;86;21042;-87
2022/03/23 08:45:04;;;;;;;45.35;25.65;;;;;;;13.48;45.72;100576.20;4125177;84;21041;-88
2022/03/23 08:57:42;;;;;;;44.45;27.87;;;;;;;14.38;45.29;100565.68;4174277;83;20173;-87
2022/03/23 09:04:33;;;;;;;51.28;27.32;;;;;;;15.48;46.81;100561.86;4110902;83;21052;-87
2022/03/23 09:10:56;;;;;;;46.70;25.05;;;;;;;16.35;45.06;100551.84;4093427;85;21023;-87
2022/03/23 09:17:12;;;;;;;44.83;24.90;;;;;;;17.37;41.18;100555.72;4023012;85;21056;-88
2022/03/23 09:23:13;;;;;;;28.10;15.28;;;;;;;18.15;42.36;100550.94;4112811;85;21091;-87
2022/03/23 09:29:14;;;;;;;24.10;14.53;;;;;;;19.24;41.32;100549.11;4119298;84;21088;-88
2022/03/23 09:35:16;;;;;;;17.80;12.60;;;;;;;20.14;39.67;100546.08;4112066;85;22132;-88
2022/03/23 09:41:19;;;;;;;24.98;15.40;;;;;;;21.26;38.54;100538.56;4084599;85;21025;-85
2022/03/23 09:47:20;;;;;;;22.73;13.90;;;;;;;22.16;36.68;100524.78;4111874;84;21122;-86
2022/03/23 09:53:23;;;;;;;21.45;13.28;;;;;;;22.90;35.52;100512.84;4102830;84;20993;-86
2022/03/23 09:59:24;;;;;;;16.55;11.38;;;;;;;23.60;33.44;100511.53;4098488;85;21040;-85
2022/03/23 10:05:47;;;;;;;18.92;13.00;;;;;;;24.10;32.73;100494.02;4112413;85;21926;-86
2022/03/23 10:12:44;;;;;;;20.90;13.20;;;;;;;24.96;31.71;100491.75;4108599;85;21071;-86
2022/03/23 10:18:56;;;;;;;15.30;11.70;;;;;;;25.39;30.43;100487.48;4116566;85;21091;-85
2022/03/23 10:25:10;;;;;;;17.57;11.73;;;;;;;26.24;26.66;100474.75;4107614;85;21031;-86
2022/03/23 10:31:17;;;;;;;20.62;12.80;;;;;;;25.09;25.21;100467.42;4108185;85;22063;-87
2022/03/23 10:37:33;;;;;;;19.85;11.48;;;;;;;25.88;25.90;100462.33;4117803;85;21545;-86
2022/03/23 10:43:37;;;;;;;15.47;11.73;;;;;;;25.53;22.77;100446.46;4114180;85;21382;-86
2022/03/23 10:49:40;;;;;;;19.98;11.88;;;;;;;26.20;19.84;100432.59;4107400;85;21593;-85
2022/03/23 10:55:48;;;;;;;16.48;10.82;;;;;;;26.24;22.86;100436.06;4112504;85;21166;-85
2022/03/23 11:02:05;;;;;;;15.85;10.13;;;;;;;26.51;21.84;100421.00;4093468;85;21077;-85
2022/03/23 11:08:22;;;;;;;16.50;10.80;;;;;;;26.76;20.17;100409.79;4025024;86;21149;-84
2022/03/23 11:27:23;;;;;;;8.78;6.35;;;;;;;27.09;19.36;100380.17;3994699;86;21040;-85
2022/03/23 11:33:26;;;;;;;13.93;8.10;;;;;;;26.97;18.70;100370.53;4001065;86;21133;-85
2022/03/23 11:39:31;;;;;;;11.85;7.75;;;;;;;27.29;18.52;100355.40;4017742;86;21164;-85
2022/03/23 11:45:32;;;;;;;14.10;9.83;;;;;;;26.94;17.59;100350.36;3998851;86;21081;-85
2022/03/23 11:52:17;;;;;;;11.50;8.43;;;;;;;26.43;15.09;100336.81;3950505;88;22222;-85
2022/03/23 11:58:23;;;;;;;17.02;12.37;;;;;;;25.91;15.60;100323.98;4005779;88;21090;-84
2022/03/23 12:04:26;;;;;;;;;;;;;;;25.38;13.91;100310.73;4077158;85;21076;-85
2022/03/23 12:10:32;;;;;;;8.95;5.67;;;;;;;24.73;15.19;100310.66;4094830;85;20141;-85
2022/03/23 12:16:57;;;;;;;6.50;4.87;;;;;;;24.64;13.67;100298.66;4100862;85;21011;-85
2022/03/23 12:23:27;;;;;;;6.78;5.10;;;;;;;24.10;13.80;100291.21;4113077;82;31813;-85
2022/03/23 12:29:33;;;;;;;4.33;3.42;;;;;;;24.16;14.10;100281.87;4170573;84;21047;-84
2022/03/23 12:35:36;;;;;;;11.63;4.75;;;;;;;23.88;13.40;100280.30;4175791;84;21067;-85
2022/03/23 12:41:46;;;;;;;7.87;5.28;;;;;;;23.80;13.81;100269.09;4178423;84;21190;-84
2022/03/23 12:48:01;;;;;;;9.78;5.08;;;;;;;23.21;13.52;100259.33;4176110;83;21045;-86
2022/03/23 13:00:10;;;;;;;6.40;4.30;;;;;;;22.76;12.83;100247.05;4084489;83;21070;-86
2022/03/23 13:06:17;;;;;;;5.65;3.10;;;;;;;22.56;12.18;100235.86;4176342;83;21102;-84
2022/03/23 13:12:22;;;;;;;3.72;2.55;;;;;;;22.60;12.46;100223.22;4067131;86;21091;-85
2022/03/23 13:18:26;;;;;;;4.17;2.77;;;;;;;22.50;10.53;100221.39;4067697;85;21055;-84
2022/03/23 13:24:28;;;;;;;3.37;2.35;;;;;;;22.38;10.19;100214.41;4070182;86;21958;-85
2022/03/23 13:30:33;;;;;;;5.45;3.08;;;;;;;22.12;9.97;100211.08;4053255;86;21119;-84
2022/03/23 13:36:40;;;;;;;5.03;2.90;;;;;;;21.96;10.78;100199.78;4113900;84;21004;-84
2022/03/23 13:49:15;;;;;;;7.20;3.98;;;;;;;22.01;10.93;100188.75;4077045;85;21134;-84
2022/03/23 13:55:16;;;;;;;9.28;4.97;;;;;;;21.81;10.79;100182.31;4076511;86;21039;-85
2022/03/23 14:08:40;;;;;;;9.38;3.27;;;;;;;21.45;9.90;100172.27;4097566;85;21029;-85
2022/03/23 14:14:49;;;;;;;4.80;3.02;;;;;;;21.43;10.36;100167.13;4101607;84;21998;-85
2022/03/23 14:21:00;;;;;;;4.65;3.30;;;;;;;21.61;10.36;100160.67;4101291;85;21064;-85
2022/03/23 14:27:39;;;;;;;4.22;3.20;;;;;;;21.80;11.00;100145.91;4111700;84;21089;-85
2022/03/23 14:34:05;;;;;;;6.25;3.12;;;;;;;21.90;11.45;100135.97;4101039;85;21065;-85
2022/03/23 14:40:26;;;;;;;5.10;2.30;;;;;;;22.06;11.32;100124.95;4092978;84;21083;-85
2022/03/23 14:46:30;;;;;;;10.03;3.40;;;;;;;22.12;11.29;100110.70;4098636;85;21084;-89
2022/03/23 14:52:32;;;;;;;7.78;3.35;;;;;;;21.93;10.71;100109.23;4035807;86;21050;-84
2022/03/23 14:58:35;;;;;;;8.30;3.83;;;;;;;21.67;10.96;100104.64;4002922;86;21073;-84
2022/03/23 15:04:36;;;;;;;10.60;4.00;;;;;;;21.46;11.24;100090.27;4018244;86;21113;-84
2022/03/23 15:16:59;;;;;;;7.12;4.10;;;;;;;20.83;11.55;100071.69;4159870;84;21067;-85
2022/03/23 15:23:07;;;;;;;15.30;6.47;;;;;;;20.46;12.44;100068.38;4160810;84;21674;-85
2022/03/23 15:29:10;;;;;;;13.58;4.50;;;;;;;20.37;12.32;100057.55;4166411;83;21090;-85
2022/03/23 15:35:12;;;;;;;7.33;3.52;;;;;;;20.16;12.82;100057.19;4167852;83;21113;-85
2022/03/23 15:41:15;;;;;;;37.93;5.33;;;;;;;19.64;13.10;100050.92;4082055;86;21087;-85
2022/03/23 15:47:19;;;;;;;11.45;4.83;;;;;;;19.40;12.98;100049.16;4083240;84;21043;-85
2022/03/23 15:53:22;;;;;;;15.30;5.15;;;;;;;19.20;13.49;100043.89;4166607;83;21079;-85
2022/03/23 15:59:23;;;;;;;8.85;4.95;;;;;;;18.94;13.62;100047.25;4179845;83;21091;-86
2022/03/23 16:05:43;;;;;;;12.68;6.35;;;;;;;18.59;14.32;100042.67;4179990;84;21588;-85
2022/03/23 16:11:45;;;;;;;17.92;6.55;;;;;;;18.23;14.34;100040.40;4167355;83;21051;-86
2022/03/23 16:17:46;;;;;;;16.40;6.58;;;;;;;17.95;14.31;100040.48;4165124;83;21736;-85
2022/03/23 16:23:49;;;;;;;15.00;6.80;;;;;;;17.70;14.53;100039.72;4075903;86;21836;-86
2022/03/23 16:29:50;;;;;;;14.05;6.15;;;;;;;17.40;14.73;100041.48;4168062;82;21048;-86
2022/03/23 16:35:51;;;;;;;13.20;7.33;;;;;;;17.08;14.89;100043.45;4161134;84;21702;-85
2022/03/23 16:41:52;;;;;;;15.83;8.10;;;;;;;16.79;15.13;100039.83;4070070;85;21039;-84
2022/03/23 16:47:58;;;;;;;16.48;8.73;;;;;;;16.45;15.58;100033.01;4163032;83;21034;-85
2022/03/23 16:54:03;;;;;;;18.35;9.25;;;;;;;16.15;15.90;100035.78;4072073;86;21570;-85
2022/03/23 17:00:08;;;;;;;94.83;35.48;;;;;;;15.77;16.27;100036.36;4184624;83;21112;-84
2022/03/23 17:12:30;;;;;;;50.60;15.85;;;;;;;14.84;17.28;100038.67;4148600;85;22301;-85
2022/03/23 17:18:31;;;;;;;31.12;14.55;;;;;;;14.30;17.76;100033.71;4139592;85;21082;-85
2022/03/23 17:24:37;;;;;;;55.20;18.20;;;;;;;13.83;18.35;100038.94;4160744;84;22077;-85
2022/03/23 17:37:08;;;;;;;45.48;16.70;;;;;;;12.87;19.42;100040.46;4138612;85;21061;-84
2022/03/23 17:43:10;;;;;;;36.13;14.20;;;;;;;12.40;19.98;100039.36;4129038;85;21063;-85
2022/03/23 17:49:12;;;;;;;29.20;14.47;;;;;;;11.82;20.38;100050.05;4124539;84;21081;-85
2022/03/23 17:55:15;;;;;;;43.13;18.95;;;;;;;11.26;21.03;100040.45;4140788;85;21062;-84
2022/03/23 18:01:16;;;;;;;41.80;18.00;;;;;;;10.89;21.60;100046.17;4034873;85;9999972;-85
2022/03/23 18:07:19;;;;;;;51.98;24.07;;;;;;;10.56;22.22;100042.92;4182683;83;21057;-85
2022/03/23 18:13:24;;;;;;;64.70;30.23;;;;;;;10.14;22.60;100041.72;4156767;84;21045;-85
2022/03/23 18:26:53;;;;;;;55.23;25.15;;;;;;;9.63;23.88;100043.85;4161881;84;21070;-84
2022/03/23 18:32:54;;;;;;;52.50;24.00;;;;;;;9.07;24.19;100037.34;4165738;83;21037;-87
2022/03/23 18:38:56;;;;;;;62.17;27.05;;;;;;;8.66;24.89;100044.88;4167731;84;21082;-84
2022/03/23 18:44:58;;;;;;;65.50;24.95;;;;;;;8.26;26.04;100037.78;4172614;84;21083;-84
2022/03/23 18:51:00;;;;;;;51.45;22.37;;;;;;;8.16;26.45;100040.87;4156390;83;21057;-84
2022/03/23 18:57:03;;;;;;;60.98;25.57;;;;;;;7.73;26.42;100037.13;4175618;84;20980;-84
2022/03/23 19:03:08;;;;;;;74.03;31.97;;;;;;;7.41;26.97;100042.43;4051820;83;10000243;-84
2022/03/23 19:09:10;;;;;;;91.47;38.78;;;;;;;7.22;27.18;100042.07;4168538;84;21027;-84
2022/03/23 19:15:15;;;;;;;73.28;33.35;;;;;;;6.91;27.64;100040.97;4181412;84;20996;-84
2022/03/23 19:21:18;;;;;;;80.90;31.77;;;;;;;6.58;28.32;100046.73;4171133;84;21027;-84
2022/03/23 19:27:20;;;;;;;73.20;30.68;;;;;;;6.40;29.27;100052.76;4178719;84;21042;-84
2022/03/23 19:40:25;;;;;;;112.30;48.15;;;;;;;5.93;31.15;100056.47;4188021;83;20967;-84
2022/03/23 19:46:27;;;;;;;92.97;37.98;;;;;;;5.80;33.18;100047.86;4192045;84;21001;-84
2022/03/23 19:52:57;;;;;;;92.97;36.83;;;;;;;5.88;32.71;100051.18;4172193;84;21982;-83
2022/03/23 19:58:58;;;;;;;92.95;39.25;;;;;;;5.49;32.44;100050.43;3946656;86;9999722;-84
2022/03/23 20:05:04;;;;;;;79.97;35.23;;;;;;;5.43;33.23;100051.70;4111896;86;21080;-84
2022/03/23 20:11:07;;;;;;;88.23;38.97;;;;;;;5.23;33.56;100050.92;4097879;86;21019;-83
2022/03/23 20:17:12;;;;;;;92.75;39.15;;;;;;;5.22;33.53;100051.47;4087265;86;21029;-83
2022/03/23 20:23:15;;;;;;;80.35;34.98;;;;;;;4.90;33.40;100055.09;4093956;86;21055;-84
2022/03/23 20:29:16;;;;;;;84.50;35.85;;;;;;;4.81;34.37;100049.05;4174700;83;21141;-86
2022/03/23 20:35:20;;;;;;;75.35;31.70;;;;;;;4.71;34.89;100052.59;4187425;84;21006;-84
2022/03/23 20:41:42;;;;;;;149.15;56.85;;;;;;;4.54;35.76;100065.48;4164015;84;21075;-83
2022/03/23 20:47:44;;;;;;;87.40;39.90;;;;;;;4.17;37.10;100048.78;4170101;84;21033;-83
2022/03/23 20:53:46;;;;;;;114.08;46.55;;;;;;;4.35;37.89;100049.17;4166511;84;22067;-83
2022/03/23 20:59:47;;;;;;;111.77;42.85;;;;;;;4.34;37.05;100049.72;4178313;84;21105;-83
2022/03/23 21:05:53;;;;;;;128.42;52.43;;;;;;;4.30;37.93;100043.33;4175242;83;21093;-83
2022/03/23 21:11:57;;;;;;;120.40;51.27;;;;;;;3.93;36.95;100045.58;4133267;83;21053;-83
2022/03/23 21:17:59;;;;;;;150.70;58.92;;;;;;;3.67;38.04;100041.81;4172048;83;21682;-83
2022/03/23 21:24:01;;;;;;;142.45;58.10;;;;;;;3.60;38.29;100039.55;4055048;86;21078;-83
2022/03/23 21:30:03;;;;;;;152.27;64.75;;;;;;;3.52;38.72;100038.09;4149664;84;21051;-83
2022/03/23 21:36:05;;;;;;;169.68;69.25;;;;;;;3.46;38.50;100040.09;4154607;84;21563;-82
2022/03/23 21:42:10;;;;;;;160.10;69.27;;;;;;;3.00;38.14;100045.64;4164636;83;21059;-82
2022/03/23 21:48:12;;;;;;;132.40;59.13;;;;;;;2.73;38.77;100040.20;4153447;84;21481;-83
2022/03/23 21:54:13;;;;;;;222.37;85.42;;;;;;;2.57;39.25;100048.89;4173758;84;21716;-83
2022/03/23 22:00:18;;;;;;;146.70;61.77;;;;;;;2.56;41.45;100033.20;4152366;84;21128;-83
2022/03/23 22:06:20;;;;;;;200.82;84.03;;;;;;;2.57;41.85;100029.97;4182774;83;21106;-83
2022/03/23 22:12:23;;;;;;;218.52;87.75;;;;;;;2.47;41.11;100020.13;4163209;84;21038;-83
2022/03/23 22:18:25;;;;;;;205.90;82.10;;;;;;;2.33;40.87;100010.37;4060938;87;21586;-83
2022/03/23 22:24:26;;;;;;;194.77;79.40;;;;;;;2.26;41.85;100003.19;4167839;83;21087;-83
2022/03/23 22:30:29;;;;;;;197.43;83.30;;;;;;;2.38;42.50;100002.19;4060945;86;21086;-82
2022/03/23 22:36:30;;;;;;;193.72;81.20;;;;;;;2.53;42.64;99991.09;4162809;84;21060;-83
2022/03/23 22:42:31;;;;;;;167.60;66.87;;;;;;;2.25;41.79;99983.49;4160244;84;21048;-83
2022/03/23 22:48:35;;;;;;;180.72;74.62;;;;;;;1.88;42.52;99995.70;4168939;84;21043;-82
2022/03/23 22:54:41;;;;;;;195.92;83.33;;;;;;;1.69;42.81;99988.72;4164614;84;21159;-83
2022/03/23 23:00:52;;;;;;;183.57;74.35;;;;;;;1.63;44.76;99983.94;4164108;84;21308;-83
2022/03/23 23:07:17;;;;;;;178.87;74.85;;;;;;;1.92;44.97;99989.98;4157417;84;21162;-82
2022/03/23 23:13:22;;;;;;;178.65;70.95;;;;;;;1.63;43.99;99986.63;4161260;83;21075;-83
2022/03/23 23:19:24;;;;;;;171.85;71.00;;;;;;;1.33;44.31;99981.13;4054605;86;21075;-83
2022/03/23 23:25:26;;;;;;;173.38;70.62;;;;;;;0.76;44.10;99989.40;4156299;83;21066;-82
2022/03/23 23:31:27;;;;;;;171.02;66.35;;;;;;;0.66;46.62;99994.11;4164604;84;21034;-82
2022/03/23 23:37:29;;;;;;;255.43;101.25;;;;;;;0.66;46.62;99994.11;4154151;84;21074;-83
2022/03/23 23:43:31;;;;;;;247.40;97.88;;;;;;;0.76;50.01;99981.31;4166052;83;21066;-82
2022/03/23 23:49:42;;;;;;;187.70;77.40;;;;;;;0.99;47.28;99981.03;4146628;84;21896;-83
2022/03/23 23:55:44;;;;;;;221.55;89.70;;;;;;;0.99;47.28;99981.03;4158093;84;21067;-83
